createdAt,value
2023-10-14T00:00:50.592Z,9.11
2023-10-14T00:10:49.352Z,1104.40
2023-10-14T00:20:50.246Z,4.76
2023-10-14T00:30:49.498Z,249.46
2023-10-14T00:40:48.339Z,706.80
2023-10-14T00:50:47.533Z,514.01
2023-10-14T01:00:48.902Z,1104.40
2023-10-14T01:10:47.668Z,12.31
2023-10-14T01:20:47.109Z,30.21
2023-10-14T01:30:46.589Z,1074.75
2023-10-14T01:40:47.283Z,624.29
2023-10-14T01:50:46.937Z,14.58
2023-10-14T02:00:47.359Z,523.95
2023-10-14T02:10:47.863Z,37.83
2023-10-14T02:20:57.799Z,12.54
2023-10-14T02:30:59.463Z,177.49
2023-10-14T02:41:00.442Z,4.86
2023-10-14T02:51:01.356Z,103.60
2023-10-14T03:01:00.870Z,510.15
2023-10-14T03:11:01.183Z,958.50
2023-10-14T03:21:01.218Z,1028.97
2023-10-14T03:31:00.555Z,9.66
2023-10-14T03:41:07.044Z,26.51
2023-10-14T03:51:05.486Z,979.71
2023-10-14T04:01:04.553Z,15.02
2023-10-14T04:11:07.163Z,32.36
2023-10-14T04:21:14.552Z,512.19
2023-10-14T04:31:15.470Z,7.51
2023-10-14T04:41:15.140Z,513.13
2023-10-14T04:51:16.956Z,517.77
2023-10-14T05:01:18.983Z,643.79
2023-10-14T05:11:19.391Z,542.18
2023-10-14T05:21:23.303Z,180.30
2023-10-14T05:31:24.040Z,1067.96
2023-10-14T05:41:22.511Z,499.38
2023-10-14T05:51:21.533Z,478.73
2023-10-14T06:01:20.661Z,546.71
2023-10-14T06:11:19.535Z,349.95
2023-10-14T06:21:18.650Z,495.63
2023-10-14T06:31:19.563Z,955.19
2023-10-14T06:41:18.626Z,554.88
2023-10-14T06:51:19.499Z,489.77
2023-10-14T07:01:18.636Z,522.57
2023-10-14T07:11:17.721Z,508.44
2023-10-14T07:21:16.675Z,782.67
2023-10-14T07:31:16.106Z,518.93
2023-10-14T07:41:15.575Z,478.01
2023-10-14T07:51:29.406Z,674.33
2023-10-14T08:01:17.945Z,217.41
2023-10-14T08:11:16.598Z,4.20
2023-10-14T08:21:15.826Z,518.71
2023-10-14T08:31:14.693Z,640.14
2023-10-14T08:41:14.821Z,6.35
2023-10-14T08:51:13.633Z,378.88
2023-10-14T09:01:12.735Z,725.13
2023-10-14T09:11:11.635Z,633.96
2023-10-14T09:21:10.668Z,210.90
2023-10-14T09:31:10.021Z,1104.40
2023-10-14T09:41:08.660Z,1101.92
2023-10-14T09:51:07.663Z,294.67
2023-10-14T10:01:06.754Z,7.57
2023-10-14T10:11:05.750Z,888.09
2023-10-14T10:21:04.750Z,6.41
2023-10-14T10:31:03.777Z,9.26
2023-10-14T10:41:03.099Z,4.06
2023-10-14T10:51:01.718Z,117.44
2023-10-14T11:01:02.061Z,0.87
2023-10-14T11:11:01.924Z,41.38
2023-10-14T11:21:00.736Z,28.83
2023-10-14T11:30:59.897Z,7.24
2023-10-14T11:40:59.433Z,2.53
2023-10-14T11:50:59.737Z,2.84
2023-10-14T12:00:58.824Z,266.78
2023-10-14T12:10:58.179Z,3.25
2023-10-14T12:20:57.026Z,17.62
2023-10-14T12:30:58.390Z,4.65
2023-10-14T12:40:57.754Z,2.08
2023-10-14T12:50:56.803Z,2.76
2023-10-14T13:00:57.280Z,9.65
2023-10-14T13:10:56.806Z,8.79
2023-10-14T13:20:58.410Z,2.81
2023-10-14T13:30:58.759Z,11.69
2023-10-14T13:40:58.042Z,2.74
2023-10-14T13:50:56.798Z,2.18
2023-10-14T14:00:56.881Z,8.73
2023-10-14T14:10:58.560Z,2.56
2023-10-14T14:20:57.888Z,9.22
2023-10-14T14:30:56.838Z,18.48
2023-10-14T14:40:55.836Z,10.30
2023-10-14T14:50:54.976Z,2.75
2023-10-14T15:00:53.871Z,4.68
2023-10-14T15:10:52.846Z,10.38
2023-10-14T15:20:51.927Z,11.02
2023-10-14T15:30:50.879Z,11.14
2023-10-14T15:40:51.800Z,7.24
2023-10-14T15:50:50.914Z,15.50
2023-10-14T16:00:50.654Z,3.21
2023-10-14T16:10:51.098Z,2.41
2023-10-14T16:20:50.640Z,2.85
2023-10-14T16:30:49.919Z,5.19
2023-10-14T16:40:50.820Z,51.07
2023-10-14T16:50:50.784Z,293.08
2023-10-14T17:00:51.669Z,1398.76
2023-10-14T17:10:51.347Z,938.99
2023-10-14T17:20:49.988Z,919.64
2023-10-14T17:30:51.098Z,1036.47
2023-10-14T17:40:51.321Z,892.88
2023-10-14T17:50:50.050Z,1306.50
2023-10-14T18:00:48.995Z,969.93
2023-10-14T18:10:49.874Z,1289.39
2023-10-14T18:20:50.011Z,776.98
2023-10-14T18:30:49.410Z,1277.94
2023-10-14T18:40:48.326Z,1051.98
2023-10-14T18:50:47.100Z,877.58
2023-10-14T19:00:46.029Z,1260.71
2023-10-14T19:10:49.171Z,631.02
2023-10-14T19:20:48.144Z,1038.90
2023-10-14T19:30:47.021Z,1254.96
2023-10-14T19:40:46.067Z,1252.08
2023-10-14T19:50:46.008Z,990.45
2023-10-14T20:00:46.809Z,859.64
2023-10-14T20:10:46.222Z,859.32
2023-10-14T20:20:45.556Z,1009.04
2023-10-14T20:30:44.047Z,867.22
2023-10-14T20:40:44.260Z,705.22
2023-10-14T20:50:43.193Z,448.79
2023-10-14T21:00:42.170Z,1257.84
2023-10-14T21:10:41.523Z,1243.43
2023-10-14T21:20:42.312Z,1234.76
2023-10-14T21:30:42.051Z,482.98
2023-10-14T21:40:41.109Z,1100.78
2023-10-14T21:50:40.098Z,1178.99
2023-10-14T22:00:40.046Z,676.78
2023-10-14T22:10:39.125Z,1205.83
2023-10-14T22:20:40.099Z,1202.93
2023-10-14T22:30:39.434Z,1197.13
2023-10-14T22:40:38.203Z,925.34
2023-10-14T22:50:38.156Z,1026.08
2023-10-14T23:00:37.212Z,692.20
2023-10-14T23:10:36.206Z,714.43
2023-10-14T23:20:35.199Z,974.18
2023-10-14T23:30:34.129Z,917.35
2023-10-14T23:40:33.138Z,1176.83
2023-10-14T23:50:34.051Z,703.37
